createdAt,value
2022-08-26T00:01:44.934Z,11.18
2022-08-26T00:04:12.646Z,11.95
2022-08-26T00:06:42.333Z,12.13
2022-08-26T00:09:12.396Z,11.90
2022-08-26T00:11:39.214Z,11.65
2022-08-26T00:14:07.107Z,11.18
2022-08-26T00:16:34.799Z,11.95
2022-08-26T00:19:01.990Z,11.23
2022-08-26T00:21:28.860Z,12.73
2022-08-26T00:23:56.138Z,12.25
2022-08-26T00:26:23.049Z,12.32
2022-08-26T00:28:55.561Z,12.27
2022-08-26T00:31:22.398Z,12.45
2022-08-26T00:33:49.250Z,12.60
2022-08-26T00:36:20.127Z,11.77
2022-08-26T00:38:48.114Z,12.07
2022-08-26T00:41:15.414Z,12.88
2022-08-26T00:43:47.629Z,13.48
2022-08-26T00:46:23.550Z,13.23
2022-08-26T00:48:53.758Z,13.18
2022-08-26T00:51:29.734Z,12.75
2022-08-26T00:54:07.657Z,13.57
2022-08-26T00:56:53.582Z,14.48
2022-08-26T00:59:21.597Z,13.05
2022-08-26T01:01:48.523Z,13.93
2022-08-26T01:04:20.935Z,14.45
2022-08-26T01:06:50.353Z,14.25
2022-08-26T01:09:18.614Z,13.98
2022-08-26T01:11:47.202Z,14.15
2022-08-26T01:14:15.875Z,13.98
2022-08-26T01:16:46.720Z,14.52
2022-08-26T01:19:45.543Z,13.93
2022-08-26T01:22:28.123Z,14.93
2022-08-26T01:24:57.106Z,14.10
2022-08-26T01:27:25.400Z,13.82
2022-08-26T01:29:52.858Z,14.88
2022-08-26T01:32:22.393Z,15.27
2022-08-26T01:34:50.621Z,13.90
2022-08-26T01:37:22.906Z,14.43
2022-08-26T01:39:52.179Z,14.30
2022-08-26T01:42:22.271Z,13.98
2022-08-26T01:45:12.852Z,14.65
2022-08-26T01:47:41.770Z,13.98
2022-08-26T01:50:18.068Z,14.80
2022-08-26T01:52:55.969Z,15.43
2022-08-26T01:55:32.402Z,15.05
2022-08-26T01:58:06.206Z,15.45
2022-08-26T02:00:35.236Z,14.80
2022-08-26T02:03:17.229Z,15.60
2022-08-26T02:05:54.233Z,14.43
2022-08-26T02:08:39.122Z,15.65
2022-08-26T02:11:06.722Z,15.23
2022-08-26T02:13:38.172Z,16.20
2022-08-26T02:16:06.390Z,15.60
2022-08-26T02:18:38.108Z,14.98
2022-08-26T02:21:06.609Z,15.02
2022-08-26T02:23:33.753Z,16.02
2022-08-26T02:26:09.975Z,15.23
2022-08-26T02:28:56.662Z,15.77
2022-08-26T02:31:24.792Z,15.80
2022-08-26T02:33:51.796Z,16.30
2022-08-26T02:36:21.128Z,15.93
2022-08-26T02:38:48.181Z,14.70
2022-08-26T02:41:15.400Z,15.75
2022-08-26T02:43:44.964Z,16.02
2022-08-26T02:46:11.858Z,16.27
2022-08-26T02:48:48.812Z,15.18
2022-08-26T02:51:15.687Z,14.75
2022-08-26T02:53:42.759Z,15.40
2022-08-26T02:56:10.188Z,16.17
2022-08-26T02:58:37.390Z,16.25
2022-08-26T03:01:04.892Z,16.20
2022-08-26T03:03:32.877Z,15.32
2022-08-26T03:05:59.807Z,14.82
2022-08-26T03:08:26.780Z,16.27
2022-08-26T03:10:54.146Z,16.45
2022-08-26T03:13:21.058Z,17.58
2022-08-26T03:15:47.963Z,15.88
2022-08-26T03:18:15.614Z,15.35
2022-08-26T03:20:42.421Z,15.57
2022-08-26T03:23:10.957Z,17.33
2022-08-26T03:25:37.806Z,17.48
2022-08-26T03:28:05.056Z,17.40
2022-08-26T03:30:44.980Z,16.95
2022-08-26T03:33:13.413Z,18.90
2022-08-26T03:35:43.410Z,18.58
2022-08-26T03:38:10.839Z,19.23
2022-08-26T03:40:37.838Z,19.40
2022-08-26T03:43:06.367Z,18.55
2022-08-26T03:45:37.129Z,17.67
2022-08-26T03:48:05.116Z,19.15
2022-08-26T03:50:34.373Z,18.77
2022-08-26T03:53:03.774Z,19.17
2022-08-26T03:55:32.435Z,18.95
2022-08-26T03:58:00.778Z,19.65
2022-08-26T04:00:28.039Z,18.83
2022-08-26T04:02:54.974Z,19.42
2022-08-26T04:05:23.161Z,18.50
2022-08-26T04:07:50.644Z,19.88
2022-08-26T04:10:20.074Z,19.95
2022-08-26T04:12:47.349Z,18.73
2022-08-26T04:15:15.844Z,18.55
2022-08-26T04:17:42.829Z,19.23
2022-08-26T04:20:13.886Z,19.83
2022-08-26T04:22:43.392Z,22.33
2022-08-26T04:25:10.923Z,20.20
2022-08-26T04:27:38.277Z,21.15
2022-08-26T04:30:08.936Z,22.85
2022-08-26T04:32:37.336Z,20.83
2022-08-26T04:35:05.164Z,22.35
2022-08-26T04:37:33.555Z,19.95
2022-08-26T04:40:00.552Z,18.25
2022-08-26T04:42:29.301Z,20.98
2022-08-26T04:44:56.197Z,23.17
2022-08-26T04:47:23.105Z,21.90
2022-08-26T04:49:50.128Z,22.65
2022-08-26T04:52:17.243Z,25.27
2022-08-26T04:54:44.090Z,22.65
2022-08-26T04:57:10.958Z,21.23
2022-08-26T04:59:39.464Z,22.13
2022-08-26T05:02:07.282Z,20.25
2022-08-26T05:04:34.518Z,21.23
2022-08-26T05:07:03.015Z,23.63
2022-08-26T05:09:30.478Z,23.48
2022-08-26T05:11:57.500Z,20.58
2022-08-26T05:14:24.382Z,25.40
2022-08-26T05:16:52.578Z,23.73
2022-08-26T05:19:19.669Z,23.52
2022-08-26T05:21:48.824Z,24.10
2022-08-26T05:24:16.176Z,24.23
2022-08-26T05:26:44.618Z,22.92
2022-08-26T05:29:12.102Z,22.75
2022-08-26T05:31:39.125Z,23.92
2022-08-26T05:34:07.026Z,26.55
2022-08-26T05:36:36.026Z,27.02
2022-08-26T05:39:10.565Z,25.98
2022-08-26T05:41:41.030Z,27.40
2022-08-26T05:44:10.636Z,27.17
2022-08-26T05:46:39.055Z,27.50
2022-08-26T05:49:12.680Z,25.20
2022-08-26T05:51:45.138Z,27.38
2022-08-26T05:54:13.723Z,27.38
2022-08-26T05:56:40.931Z,26.92
2022-08-26T05:59:14.707Z,26.40
2022-08-26T06:01:42.816Z,25.67
2022-08-26T06:04:10.069Z,27.30
2022-08-26T06:06:41.267Z,26.33
2022-08-26T06:09:10.912Z,27.40
2022-08-26T06:11:39.189Z,25.42
2022-08-26T06:14:08.138Z,26.17
2022-08-26T06:16:40.719Z,25.05
2022-08-26T06:19:11.438Z,24.58
2022-08-26T06:21:41.081Z,25.77
2022-08-26T06:24:32.178Z,24.20
2022-08-26T06:27:05.512Z,21.40
2022-08-26T06:29:34.591Z,24.17
2022-08-26T06:32:04.057Z,23.38
2022-08-26T06:34:31.254Z,21.20
2022-08-26T06:37:06.420Z,22.80
2022-08-26T06:39:34.049Z,22.80
2022-08-26T06:42:03.055Z,22.77
2022-08-26T06:44:34.276Z,21.80
2022-08-26T06:47:01.431Z,20.85
2022-08-26T06:49:28.330Z,20.52
2022-08-26T06:51:58.636Z,21.48
2022-08-26T06:54:26.760Z,19.80
2022-08-26T06:56:55.900Z,20.63
2022-08-26T06:59:23.983Z,20.77
2022-08-26T07:01:52.193Z,19.58
2022-08-26T07:04:20.145Z,20.33
2022-08-26T07:06:52.263Z,20.60
2022-08-26T07:09:19.934Z,20.75
2022-08-26T07:11:48.159Z,19.90
2022-08-26T07:14:16.881Z,19.98
2022-08-26T07:16:48.534Z,20.08
2022-08-26T07:19:17.451Z,19.83
2022-08-26T07:21:55.370Z,19.77
2022-08-26T07:24:22.528Z,18.70
2022-08-26T07:26:50.290Z,20.55
2022-08-26T07:29:18.417Z,19.00
2022-08-26T07:31:45.599Z,19.45
2022-08-26T07:34:13.929Z,19.33
2022-08-26T07:36:41.765Z,18.75
2022-08-26T07:39:08.945Z,20.10
2022-08-26T07:41:36.585Z,18.27
2022-08-26T07:44:04.328Z,18.05
2022-08-26T07:46:31.752Z,18.05
2022-08-26T07:48:58.639Z,18.55
2022-08-26T07:51:27.965Z,16.70
2022-08-26T07:53:55.560Z,18.77
2022-08-26T07:56:23.531Z,17.20
2022-08-26T07:58:52.034Z,18.05
2022-08-26T08:01:24.719Z,16.70
2022-08-26T08:03:54.270Z,17.20
2022-08-26T08:06:27.417Z,16.90
2022-08-26T08:08:55.792Z,17.85
2022-08-26T08:11:23.622Z,17.63
2022-08-26T08:13:56.321Z,16.77
2022-08-26T08:16:28.543Z,17.02
2022-08-26T08:18:59.320Z,16.27
2022-08-26T08:21:27.982Z,16.58
2022-08-26T08:23:57.366Z,17.55
2022-08-26T08:26:25.845Z,17.20
2022-08-26T08:28:57.633Z,16.48
2022-08-26T08:31:54.497Z,15.90
2022-08-26T08:34:15.662Z,16.92
2022-08-26T08:36:42.537Z,17.65
2022-08-26T08:39:09.528Z,16.67
2022-08-26T08:41:48.505Z,15.70
2022-08-26T08:47:20.765Z,15.00
2022-08-26T08:49:48.034Z,15.90
2022-08-26T08:52:35.192Z,16.20
2022-08-26T08:55:05.756Z,17.38
2022-08-26T08:57:53.680Z,18.02
2022-08-26T09:00:30.265Z,17.15
2022-08-26T09:03:07.518Z,18.25
2022-08-26T09:05:48.560Z,17.52
2022-08-26T09:08:24.603Z,19.27
2022-08-26T09:10:56.029Z,16.67
2022-08-26T09:13:25.234Z,18.45
2022-08-26T09:16:07.358Z,18.65
2022-08-26T09:18:56.202Z,17.30
2022-08-26T09:21:25.283Z,14.75
2022-08-26T09:23:56.709Z,16.25
2022-08-26T09:26:47.406Z,15.85
2022-08-26T09:29:24.550Z,14.85
2022-08-26T09:31:53.095Z,13.73
2022-08-26T09:34:23.041Z,13.05
2022-08-26T09:36:54.877Z,12.70
2022-08-26T09:39:25.034Z,15.05
2022-08-26T09:42:16.778Z,15.20
2022-08-26T09:44:57.712Z,14.27
2022-08-26T09:47:48.026Z,13.30
2022-08-26T09:50:31.045Z,14.43
2022-08-26T09:53:15.660Z,16.77
2022-08-26T09:55:45.349Z,17.58
2022-08-26T09:58:32.193Z,17.67
2022-08-26T10:01:02.497Z,18.15
2022-08-26T10:03:33.352Z,31.55
2022-08-26T10:06:23.266Z,16.30
2022-08-26T10:08:54.974Z,19.08
2022-08-26T10:11:30.837Z,18.23
2022-08-26T10:14:13.299Z,19.15
2022-08-26T10:16:50.838Z,17.58
2022-08-26T10:19:25.628Z,17.20
2022-08-26T10:22:37.330Z,14.60
2022-08-26T10:25:09.098Z,16.55
2022-08-26T10:27:49.728Z,14.88
2022-08-26T10:30:22.488Z,15.93
2022-08-26T10:32:55.507Z,15.13
2022-08-26T10:35:23.595Z,15.20
2022-08-26T10:37:58.722Z,15.23
2022-08-26T10:41:09.798Z,15.65
2022-08-26T10:43:40.906Z,14.57
2022-08-26T10:46:20.678Z,14.75
2022-08-26T10:48:53.888Z,15.57
2022-08-26T10:51:47.522Z,16.00
2022-08-26T10:54:50.771Z,14.40
2022-08-26T10:57:42.907Z,14.48
2022-08-26T11:00:40.906Z,15.68
2022-08-26T11:03:36.977Z,17.90
2022-08-26T11:06:19.680Z,17.27
2022-08-26T11:09:00.999Z,19.15
2022-08-26T11:11:39.911Z,22.75
2022-08-26T11:14:10.317Z,21.27
2022-08-26T11:16:49.707Z,21.38
2022-08-26T11:19:58.864Z,20.67
2022-08-26T11:22:29.134Z,17.08
2022-08-26T11:24:55.951Z,18.13
2022-08-26T11:27:25.985Z,18.58
2022-08-26T11:30:15.743Z,18.30
2022-08-26T11:32:53.051Z,17.67
2022-08-26T11:35:19.869Z,23.58
2022-08-26T11:37:51.500Z,23.88
2022-08-26T11:40:27.881Z,24.85
2022-08-26T11:43:00.531Z,20.42
2022-08-26T11:45:37.836Z,23.25
2022-08-26T11:48:28.278Z,25.92
2022-08-26T11:51:01.743Z,25.70
2022-08-26T11:53:33.293Z,25.83
2022-08-26T11:56:04.440Z,24.45
2022-08-26T11:58:31.961Z,25.33
2022-08-26T12:01:09.835Z,27.55
2022-08-26T12:03:44.529Z,29.08
2022-08-26T12:06:21.873Z,28.40
2022-08-26T12:08:49.353Z,24.55
2022-08-26T12:11:25.536Z,28.98
2022-08-26T12:13:57.190Z,25.38
2022-08-26T12:16:27.529Z,23.85
2022-08-26T12:18:56.518Z,26.48
2022-08-26T12:21:31.481Z,28.00
2022-08-26T12:24:03.993Z,28.50
2022-08-26T12:26:34.819Z,25.95
2022-08-26T12:29:09.968Z,26.88
2022-08-26T12:32:06.078Z,26.00
2022-08-26T12:34:34.425Z,26.70
2022-08-26T12:37:01.529Z,24.45
2022-08-26T12:39:35.363Z,24.38
2022-08-26T12:42:40.283Z,23.48
2022-08-26T12:45:08.434Z,21.63
2022-08-26T12:47:42.704Z,23.05
2022-08-26T12:50:19.232Z,22.60
2022-08-26T12:53:25.861Z,21.63
2022-08-26T12:55:58.181Z,20.88
2022-08-26T12:58:33.413Z,17.58
2022-08-26T13:03:43.836Z,18.35
2022-08-26T13:06:22.680Z,17.52
2022-08-26T13:09:02.335Z,17.40
2022-08-26T13:11:32.412Z,16.17
2022-08-26T13:14:18.405Z,14.98
2022-08-26T13:16:51.427Z,14.88
2022-08-26T13:19:21.975Z,14.50
2022-08-26T13:21:53.888Z,13.95
2022-08-26T13:24:39.775Z,13.63
2022-08-26T13:27:09.980Z,14.02
2022-08-26T13:29:37.168Z,12.65
2022-08-26T13:32:05.933Z,14.90
2022-08-26T13:34:34.247Z,14.63
2022-08-26T13:37:01.182Z,14.02
2022-08-26T13:39:28.246Z,13.05
2022-08-26T13:41:55.247Z,14.05
2022-08-26T13:44:22.075Z,14.30
2022-08-26T13:46:49.016Z,13.07
2022-08-26T13:49:16.029Z,13.10
2022-08-26T13:51:42.979Z,14.52
2022-08-26T13:54:09.841Z,13.85
2022-08-26T13:56:37.446Z,14.95
2022-08-26T13:59:05.802Z,12.93
2022-08-26T14:01:34.695Z,7.05
2022-08-26T14:04:02.956Z,6.15
2022-08-26T14:06:30.267Z,5.90
2022-08-26T14:08:57.191Z,6.07
2022-08-26T14:11:24.956Z,5.65
2022-08-26T14:13:52.418Z,5.95
2022-08-26T14:16:33.527Z,5.75
2022-08-26T14:19:01.912Z,5.75
2022-08-26T14:21:31.824Z,5.65
2022-08-26T14:24:00.906Z,5.40
2022-08-26T14:26:29.792Z,5.55
2022-08-26T14:28:58.908Z,5.13
2022-08-26T14:31:27.223Z,5.38
2022-08-26T14:33:56.685Z,5.72
2022-08-26T14:36:29.542Z,5.50
2022-08-26T14:39:01.948Z,5.60
2022-08-26T14:41:30.741Z,5.72
2022-08-26T14:44:05.784Z,6.32
2022-08-26T14:46:39.335Z,5.85
2022-08-26T14:49:10.349Z,5.63
2022-08-26T14:51:38.497Z,6.47
2022-08-26T14:54:14.648Z,6.05
2022-08-26T14:56:46.267Z,5.88
2022-08-26T14:59:17.556Z,6.57
2022-08-26T15:01:45.410Z,9.60
2022-08-26T15:04:12.621Z,12.65
2022-08-26T15:06:40.519Z,11.32
2022-08-26T15:09:08.406Z,7.97
2022-08-26T15:11:35.298Z,8.73
2022-08-26T15:14:02.617Z,10.98
2022-08-26T15:16:30.476Z,11.82
2022-08-26T15:18:57.958Z,10.10
2022-08-26T15:21:26.598Z,11.77
2022-08-26T15:23:54.196Z,14.43
2022-08-26T15:26:23.052Z,14.88
2022-08-26T15:28:50.945Z,15.30
2022-08-26T15:31:18.940Z,14.57
2022-08-26T15:33:45.954Z,14.30
2022-08-26T15:36:12.877Z,12.38
2022-08-26T15:38:42.568Z,11.13
2022-08-26T15:41:10.344Z,12.13
2022-08-26T15:43:37.991Z,9.60
2022-08-26T15:46:10.450Z,8.25
2022-08-26T15:48:38.343Z,7.60
2022-08-26T15:51:06.738Z,6.68
2022-08-26T15:53:35.060Z,6.55
2022-08-26T15:56:02.453Z,6.47
2022-08-26T15:58:30.230Z,5.50
2022-08-26T16:00:57.450Z,5.97
2022-08-26T16:03:25.404Z,5.18
2022-08-26T16:05:52.384Z,5.35
2022-08-26T16:08:20.238Z,4.85
2022-08-26T16:10:50.549Z,4.70
2022-08-26T16:13:20.044Z,3.72
2022-08-26T16:15:47.968Z,3.13
2022-08-26T16:18:15.577Z,3.72
2022-08-26T16:20:55.390Z,3.40
2022-08-26T16:23:38.448Z,2.58
2022-08-26T16:26:10.676Z,2.95
2022-08-26T16:28:38.289Z,3.10
2022-08-26T16:31:06.690Z,2.78
2022-08-26T16:33:33.704Z,7.40
2022-08-26T16:36:00.711Z,10.93
2022-08-26T16:38:27.689Z,11.52
2022-08-26T16:40:54.569Z,11.80
2022-08-26T16:43:21.610Z,12.35
2022-08-26T16:45:48.473Z,13.02
2022-08-26T16:48:15.634Z,13.52
2022-08-26T16:50:42.483Z,13.45
2022-08-26T16:55:45.946Z,12.20
2022-08-26T16:58:12.919Z,11.95
2022-08-26T17:00:39.920Z,12.40
2022-08-26T17:03:06.836Z,12.55
2022-08-26T17:05:33.746Z,13.35
2022-08-26T17:08:00.759Z,12.45
2022-08-26T17:10:29.529Z,13.02
2022-08-26T17:12:57.246Z,14.07
2022-08-26T17:15:25.465Z,13.05
2022-08-26T17:17:53.638Z,13.15
2022-08-26T17:20:22.593Z,13.30
2022-08-26T17:22:51.754Z,13.73
2022-08-26T17:25:24.054Z,13.70
2022-08-26T17:27:51.001Z,14.40
2022-08-26T17:30:18.511Z,13.70
2022-08-26T17:32:46.332Z,13.43
2022-08-26T17:35:14.317Z,12.57
2022-08-26T17:37:41.681Z,12.35
2022-08-26T17:40:12.463Z,11.80
2022-08-26T17:42:40.196Z,12.07
2022-08-26T17:45:08.784Z,11.95
2022-08-26T17:47:35.791Z,11.88
2022-08-26T17:50:03.770Z,10.20
2022-08-26T17:52:30.880Z,9.07
2022-08-26T17:54:57.752Z,8.13
2022-08-26T17:57:25.932Z,8.77
2022-08-26T17:59:53.658Z,8.50
2022-08-26T18:02:21.235Z,7.57
2022-08-26T18:04:48.475Z,7.85
2022-08-26T18:07:16.141Z,7.05
2022-08-26T18:09:44.001Z,7.15
2022-08-26T18:12:11.663Z,7.03
2022-08-26T18:14:38.834Z,6.70
2022-08-26T18:17:05.839Z,6.82
2022-08-26T18:19:32.769Z,7.57
2022-08-26T18:21:59.703Z,8.27
2022-08-26T18:24:30.284Z,6.80
2022-08-26T18:26:57.527Z,6.68
2022-08-26T18:29:25.450Z,6.45
2022-08-26T18:31:52.500Z,6.13
2022-08-26T18:34:19.507Z,6.30
2022-08-26T18:36:46.930Z,5.80
2022-08-26T18:39:15.203Z,5.43
2022-08-26T18:41:55.151Z,5.30
2022-08-26T18:44:23.297Z,5.45
2022-08-26T18:46:51.965Z,4.88
2022-08-26T18:49:20.970Z,4.68
2022-08-26T18:51:50.973Z,4.55
2022-08-26T18:56:50.909Z,4.53
2022-08-26T18:59:18.258Z,5.40
2022-08-26T19:01:45.480Z,4.40
2022-08-26T19:04:15.541Z,4.30
2022-08-26T19:06:45.033Z,4.20
2022-08-26T19:09:14.667Z,4.25
2022-08-26T19:11:44.834Z,4.95
2022-08-26T19:14:14.282Z,4.28
2022-08-26T19:16:43.738Z,4.53
2022-08-26T19:19:11.120Z,4.80
2022-08-26T19:21:39.056Z,4.10
2022-08-26T19:24:09.396Z,4.53
2022-08-26T19:26:36.682Z,3.67
2022-08-26T19:29:04.015Z,4.32
2022-08-26T19:31:31.261Z,3.97
2022-08-26T19:33:59.040Z,3.60
2022-08-26T19:36:27.406Z,3.33
2022-08-26T19:38:56.623Z,3.45
2022-08-26T19:41:37.469Z,4.00
2022-08-26T19:44:11.373Z,3.70
2022-08-26T19:49:10.474Z,4.40
2022-08-26T19:51:37.460Z,3.85
2022-08-26T19:54:04.755Z,3.60
2022-08-26T19:56:31.830Z,3.83
2022-08-26T19:58:58.903Z,3.58
2022-08-26T20:01:26.057Z,4.15
2022-08-26T20:03:53.327Z,3.78
2022-08-26T20:06:20.930Z,3.88
2022-08-26T20:08:50.629Z,3.83
2022-08-26T20:11:18.918Z,3.92
2022-08-26T20:13:47.884Z,3.92
2022-08-26T20:16:16.287Z,4.18
2022-08-26T20:19:03.173Z,4.18
2022-08-26T20:21:34.136Z,4.05
2022-08-26T20:24:12.480Z,4.05
2022-08-26T20:26:41.780Z,4.43
2022-08-26T20:29:10.664Z,4.05
2022-08-26T20:31:38.272Z,3.95
2022-08-26T20:34:06.070Z,4.25
2022-08-26T20:36:33.945Z,5.80
2022-08-26T20:39:01.178Z,5.25
2022-08-26T20:41:28.888Z,5.35
2022-08-26T20:43:56.392Z,5.15
2022-08-26T20:46:25.194Z,5.15
2022-08-26T20:48:53.392Z,5.15
2022-08-26T20:51:22.870Z,4.95
2022-08-26T20:53:50.120Z,5.75
2022-08-26T20:56:22.202Z,5.57
2022-08-26T20:58:49.610Z,5.85
2022-08-26T21:01:28.313Z,6.07
2022-08-26T21:03:57.031Z,5.78
2022-08-26T21:06:24.381Z,5.63
2022-08-26T21:08:51.375Z,6.10
2022-08-26T21:11:20.472Z,6.25
2022-08-26T21:14:04.363Z,5.80
2022-08-26T21:16:36.163Z,5.78
2022-08-26T21:19:05.843Z,5.93
2022-08-26T21:21:33.621Z,6.32
2022-08-26T21:24:00.771Z,6.38
2022-08-26T21:26:27.964Z,6.78
2022-08-26T21:28:54.868Z,6.30
2022-08-26T21:31:24.573Z,6.43
2022-08-26T21:33:52.216Z,6.35
2022-08-26T21:36:19.850Z,6.68
2022-08-26T21:38:46.874Z,6.18
2022-08-26T21:41:19.370Z,5.90
2022-08-26T21:43:47.765Z,6.30
2022-08-26T21:46:22.727Z,6.22
2022-08-26T21:48:54.887Z,6.88
2022-08-26T21:51:24.106Z,7.40
2022-08-26T21:53:52.910Z,6.85
2022-08-26T21:56:21.407Z,7.03
2022-08-26T21:58:48.294Z,6.80
2022-08-26T22:01:21.514Z,7.95
2022-08-26T22:03:49.871Z,8.20
2022-08-26T22:06:18.958Z,8.10
2022-08-26T22:08:45.976Z,8.90
2022-08-26T22:11:13.388Z,8.60
2022-08-26T22:13:42.010Z,8.88
2022-08-26T22:16:09.891Z,8.68
2022-08-26T22:18:37.978Z,9.07
2022-08-26T22:21:09.104Z,8.65
2022-08-26T22:23:37.692Z,8.48
2022-08-26T22:26:06.946Z,8.80
2022-08-26T22:28:34.296Z,8.80
2022-08-26T22:31:01.907Z,8.10
2022-08-26T22:33:29.042Z,8.05
2022-08-26T22:35:56.117Z,7.80
2022-08-26T22:38:23.821Z,7.70
2022-08-26T22:40:56.871Z,7.28
2022-08-26T22:43:25.206Z,7.53
2022-08-26T22:45:53.212Z,7.45
2022-08-26T22:48:23.805Z,7.47
2022-08-26T22:50:54.508Z,7.65
2022-08-26T22:53:24.079Z,7.63
2022-08-26T22:55:50.965Z,7.10
2022-08-26T22:58:18.592Z,7.18
2022-08-26T23:00:47.475Z,6.82
2022-08-26T23:03:15.944Z,6.20
2022-08-26T23:05:43.959Z,6.65
2022-08-26T23:08:12.358Z,6.45
2022-08-26T23:10:41.634Z,6.47
2022-08-26T23:13:08.513Z,6.40
2022-08-26T23:15:36.102Z,6.43
2022-08-26T23:18:03.687Z,6.47
2022-08-26T23:20:32.350Z,6.22
2022-08-26T23:22:59.688Z,6.43
2022-08-26T23:25:27.974Z,7.07
2022-08-26T23:27:55.335Z,7.55
2022-08-26T23:30:24.957Z,7.72
2022-08-26T23:32:51.840Z,7.07
2022-08-26T23:35:21.984Z,7.60
2022-08-26T23:37:52.894Z,7.38
2022-08-26T23:40:30.323Z,6.88
2022-08-26T23:42:58.459Z,6.80
2022-08-26T23:45:26.800Z,7.00
2022-08-26T23:47:54.607Z,6.68
2022-08-26T23:50:44.188Z,6.85
2022-08-26T23:53:17.546Z,6.30
2022-08-26T23:55:44.393Z,6.03
2022-08-26T23:58:11.504Z,6.50
